createdAt,value
2018-12-01T00:00:31.927Z,993.52
2018-12-01T00:01:31.962Z,993.50
2018-12-01T00:02:32.002Z,993.52
2018-12-01T00:03:32.037Z,993.48
2018-12-01T00:04:32.071Z,993.50
2018-12-01T00:05:32.109Z,993.49
2018-12-01T00:06:32.145Z,993.50
2018-12-01T00:07:32.180Z,993.43
2018-12-01T00:08:32.219Z,993.46
2018-12-01T00:09:32.254Z,993.44
2018-12-01T00:10:32.301Z,993.43
2018-12-01T00:11:32.327Z,993.43
2018-12-01T00:12:32.363Z,993.45
2018-12-01T00:13:32.549Z,993.47
2018-12-01T00:14:32.441Z,993.47
2018-12-01T00:15:32.471Z,993.50
2018-12-01T00:16:32.509Z,993.50
2018-12-01T00:17:32.546Z,993.51
2018-12-01T00:18:32.583Z,993.50
2018-12-01T00:19:32.625Z,993.51
2018-12-01T00:20:32.656Z,993.51
2018-12-01T00:21:32.692Z,993.51
2018-12-01T00:22:32.727Z,993.49
2018-12-01T00:23:32.763Z,993.48
2018-12-01T00:24:32.800Z,993.48
2018-12-01T00:25:32.838Z,993.48
2018-12-01T00:26:32.874Z,993.49
2018-12-01T00:27:32.909Z,993.51
2018-12-01T00:28:32.946Z,993.46
2018-12-01T00:29:32.983Z,993.44
2018-12-01T00:30:33.071Z,993.42
2018-12-01T00:31:33.063Z,993.46
2018-12-01T00:32:33.093Z,993.47
2018-12-01T00:33:33.138Z,993.44
2018-12-01T00:34:33.166Z,993.52
2018-12-01T00:35:33.203Z,993.51
2018-12-01T00:36:33.238Z,993.51
2018-12-01T00:37:33.277Z,993.47
2018-12-01T00:38:33.319Z,993.45
2018-12-01T00:39:33.349Z,993.42
2018-12-01T00:40:33.386Z,993.44
2018-12-01T00:41:33.422Z,993.45
2018-12-01T00:42:33.460Z,993.44
2018-12-01T00:43:33.493Z,993.48
2018-12-01T00:44:33.533Z,993.47
2018-12-01T00:45:33.569Z,993.47
2018-12-01T00:46:33.604Z,993.48
2018-12-01T00:47:33.642Z,993.51
2018-12-01T00:48:33.678Z,993.52
2018-12-01T00:49:33.717Z,993.53
2018-12-01T00:50:33.752Z,993.55
2018-12-01T00:51:33.789Z,993.55
2018-12-01T00:52:33.824Z,993.55
2018-12-01T00:53:33.862Z,993.55
2018-12-01T00:54:33.898Z,993.55
2018-12-01T00:55:33.933Z,993.54
2018-12-01T00:56:33.971Z,993.52
2018-12-01T00:57:34.010Z,993.54
2018-12-01T00:58:34.047Z,993.51
2018-12-01T00:59:34.080Z,993.49
2018-12-01T01:00:34.117Z,993.46
2018-12-01T01:01:34.158Z,993.48
2018-12-01T01:02:34.191Z,993.45
2018-12-01T01:03:34.229Z,993.41
2018-12-01T01:04:34.276Z,993.47
2018-12-01T01:05:34.340Z,993.47
2018-12-01T01:06:34.338Z,993.51
2018-12-01T01:07:34.373Z,993.48
2018-12-01T01:08:34.415Z,993.50
2018-12-01T01:09:34.453Z,993.54
2018-12-01T01:10:34.721Z,993.58
2018-12-01T01:11:34.519Z,993.61
2018-12-01T01:12:34.557Z,993.60
2018-12-01T01:13:34.594Z,993.60
2018-12-01T01:14:34.629Z,993.62
2018-12-01T01:15:34.664Z,993.55
2018-12-01T01:16:34.701Z,993.59
2018-12-01T01:17:34.737Z,993.60
2018-12-01T01:18:34.775Z,993.58
2018-12-01T01:19:34.809Z,993.58
2018-12-01T01:20:34.847Z,993.59
2018-12-01T01:21:34.884Z,993.60
2018-12-01T01:22:34.920Z,993.59
2018-12-01T01:23:34.964Z,993.55
2018-12-01T01:24:34.992Z,993.60
2018-12-01T01:25:35.029Z,993.63
2018-12-01T01:26:35.068Z,993.62
2018-12-01T01:27:35.103Z,993.66
2018-12-01T01:28:35.163Z,993.70
2018-12-01T01:29:35.176Z,993.75
2018-12-01T01:30:35.217Z,993.75
2018-12-01T01:31:35.248Z,993.75
2018-12-01T01:32:35.284Z,993.80
2018-12-01T01:33:35.361Z,993.82
2018-12-01T01:34:35.358Z,993.82
2018-12-01T01:35:35.394Z,993.79
2018-12-01T01:36:35.431Z,993.80
2018-12-01T01:37:35.468Z,993.83
2018-12-01T01:38:35.505Z,993.82
2018-12-01T01:39:35.540Z,993.78
2018-12-01T01:40:35.577Z,993.79
2018-12-01T01:41:35.614Z,993.72
2018-12-01T01:42:35.658Z,993.70
2018-12-01T01:43:35.687Z,993.64
2018-12-01T01:44:35.731Z,993.59
2018-12-01T01:45:35.759Z,993.54
2018-12-01T01:46:35.795Z,993.48
2018-12-01T01:47:35.832Z,993.51
2018-12-01T01:48:35.871Z,993.59
2018-12-01T01:49:35.909Z,993.59
2018-12-01T01:50:35.942Z,993.60
2018-12-01T01:51:35.994Z,993.61
2018-12-01T01:52:36.017Z,993.64
2018-12-01T01:53:36.061Z,993.66
2018-12-01T01:54:36.088Z,993.69
2018-12-01T01:55:36.126Z,993.66
2018-12-01T01:56:36.397Z,993.66
2018-12-01T01:57:36.455Z,993.65
2018-12-01T01:58:36.238Z,993.60
2018-12-01T01:59:36.271Z,993.68
2018-12-01T02:00:36.308Z,993.65
2018-12-01T02:01:36.345Z,993.64
2018-12-01T02:02:36.382Z,993.61
2018-12-01T02:03:36.417Z,993.66
2018-12-01T02:04:36.453Z,993.66
2018-12-01T02:05:36.491Z,993.63
2018-12-01T02:06:36.526Z,993.61
2018-12-01T02:07:36.564Z,993.64
2018-12-01T02:08:36.600Z,993.65
2018-12-01T02:09:36.638Z,993.71
2018-12-01T02:10:36.673Z,993.69
2018-12-01T02:11:36.712Z,993.72
2018-12-01T02:12:36.747Z,993.70
2018-12-01T02:13:36.781Z,993.74
2018-12-01T02:14:36.820Z,993.72
2018-12-01T02:15:36.856Z,993.68
2018-12-01T02:16:36.899Z,993.68
2018-12-01T02:17:36.938Z,993.64
2018-12-01T02:18:36.965Z,993.58
2018-12-01T02:19:37.001Z,993.53
2018-12-01T02:20:37.040Z,993.53
2018-12-01T02:21:37.074Z,993.53
2018-12-01T02:22:37.111Z,993.50
2018-12-01T02:23:37.148Z,993.47
2018-12-01T02:24:37.183Z,993.46
2018-12-01T02:25:37.222Z,993.50
2018-12-01T02:26:37.264Z,993.48
2018-12-01T02:27:37.293Z,993.50
2018-12-01T02:28:37.330Z,993.45
2018-12-01T02:29:37.367Z,993.45
2018-12-01T02:30:37.404Z,993.48
2018-12-01T02:31:37.444Z,993.49
2018-12-01T02:32:37.480Z,993.51
2018-12-01T02:33:37.513Z,993.48
2018-12-01T02:34:37.555Z,993.44
2018-12-01T02:35:37.585Z,993.43
2018-12-01T02:36:37.625Z,993.43
2018-12-01T02:37:37.658Z,993.46
2018-12-01T02:38:37.699Z,993.39
2018-12-01T02:39:37.732Z,993.41
2018-12-01T02:40:37.772Z,993.45
2018-12-01T02:41:37.809Z,993.49
2018-12-01T02:42:37.850Z,993.50
2018-12-01T02:43:37.878Z,993.51
2018-12-01T02:44:37.919Z,993.55
2018-12-01T02:45:37.953Z,993.57
2018-12-01T02:46:37.990Z,993.54
2018-12-01T02:47:38.024Z,993.55
2018-12-01T02:48:38.061Z,993.54
2018-12-01T02:49:38.096Z,993.52
2018-12-01T02:50:38.134Z,993.53
2018-12-01T02:51:38.172Z,993.55
2018-12-01T02:52:38.206Z,993.53
2018-12-01T02:53:38.245Z,993.52
2018-12-01T02:54:38.280Z,993.56
2018-12-01T02:55:38.319Z,993.55
2018-12-01T02:56:38.352Z,993.57
2018-12-01T02:57:38.389Z,993.60
2018-12-01T02:58:38.528Z,993.59
2018-12-01T02:59:38.463Z,993.60
2018-12-01T03:00:38.498Z,993.55
2018-12-01T03:01:38.535Z,993.56
2018-12-01T03:02:38.572Z,993.55
2018-12-01T03:03:38.608Z,993.52
2018-12-01T03:04:38.649Z,993.55
2018-12-01T03:05:38.683Z,993.49
2018-12-01T03:06:38.725Z,993.49
2018-12-01T03:07:38.756Z,993.52
2018-12-01T03:08:38.794Z,993.52
2018-12-01T03:09:38.828Z,993.57
2018-12-01T03:10:38.868Z,993.61
2018-12-01T03:11:38.902Z,993.59
2018-12-01T03:12:38.938Z,993.55
2018-12-01T03:13:38.977Z,993.58
2018-12-01T03:14:39.011Z,993.55
2018-12-01T03:15:39.046Z,993.63
2018-12-01T03:16:39.087Z,993.60
2018-12-01T03:17:39.122Z,993.65
2018-12-01T03:18:39.157Z,993.63
2018-12-01T03:19:39.202Z,993.56
2018-12-01T03:20:39.228Z,993.57
2018-12-01T03:21:39.267Z,993.54
2018-12-01T03:22:39.303Z,993.55
2018-12-01T03:23:39.339Z,993.55
2018-12-01T03:24:39.375Z,993.56
2018-12-01T03:25:39.411Z,993.55
2018-12-01T03:26:39.524Z,993.59
2018-12-01T03:27:39.486Z,993.54
2018-12-01T03:28:39.523Z,993.55
2018-12-01T03:29:39.557Z,993.57
2018-12-01T03:30:39.598Z,993.52
2018-12-01T03:31:39.635Z,993.49
2018-12-01T03:32:39.676Z,993.46
2018-12-01T03:33:39.705Z,993.44
2018-12-01T03:34:39.741Z,993.51
2018-12-01T03:35:39.777Z,993.41
2018-12-01T03:36:39.816Z,993.42
2018-12-01T03:37:39.857Z,993.41
2018-12-01T03:38:39.885Z,993.43
2018-12-01T03:39:39.922Z,993.39
2018-12-01T03:40:39.959Z,993.39
2018-12-01T03:41:39.996Z,993.40
2018-12-01T03:42:40.033Z,993.45
2018-12-01T03:43:40.069Z,993.47
2018-12-01T03:44:40.105Z,993.48
2018-12-01T03:45:40.143Z,993.49
2018-12-01T03:46:40.180Z,993.49
2018-12-01T03:47:40.214Z,993.51
2018-12-01T03:48:40.251Z,993.60
2018-12-01T03:49:40.297Z,993.59
2018-12-01T03:50:40.361Z,993.65
2018-12-01T03:51:40.370Z,993.65
2018-12-01T03:52:40.403Z,993.69
2018-12-01T03:53:40.442Z,993.68
2018-12-01T03:54:40.475Z,993.65
2018-12-01T03:55:40.507Z,993.62
2018-12-01T03:56:40.543Z,993.60
2018-12-01T03:57:40.579Z,993.55
2018-12-01T03:58:40.619Z,993.57
2018-12-01T03:59:40.654Z,993.50
2018-12-01T04:00:40.690Z,993.57
2018-12-01T04:01:40.728Z,993.57
2018-12-01T04:02:40.763Z,993.58
2018-12-01T04:03:40.801Z,993.59
2018-12-01T04:04:40.838Z,993.60
2018-12-01T04:05:40.874Z,993.59
2018-12-01T04:06:40.912Z,993.61
2018-12-01T04:07:41.138Z,993.64
2018-12-01T04:08:41.043Z,993.62
2018-12-01T04:09:41.023Z,993.66
2018-12-01T04:10:41.059Z,993.67
2018-12-01T04:11:41.094Z,993.75
2018-12-01T04:12:41.134Z,993.77
2018-12-01T04:13:41.168Z,993.71
2018-12-01T04:14:41.205Z,993.66
2018-12-01T04:15:41.241Z,993.68
2018-12-01T04:16:41.279Z,993.69
2018-12-01T04:17:41.315Z,993.69
2018-12-01T04:18:41.355Z,993.67
2018-12-01T04:19:41.390Z,993.66
2018-12-01T04:20:41.427Z,993.73
2018-12-01T04:21:41.465Z,993.71
2018-12-01T04:22:41.500Z,993.74
2018-12-01T04:23:41.541Z,993.73
2018-12-01T04:24:41.573Z,993.73
2018-12-01T04:25:41.612Z,993.70
2018-12-01T04:26:41.647Z,993.68
2018-12-01T04:27:41.692Z,993.76
2018-12-01T04:28:41.720Z,993.74
2018-12-01T04:29:41.756Z,993.79
2018-12-01T04:30:41.792Z,993.73
2018-12-01T04:31:41.837Z,993.78
2018-12-01T04:32:41.868Z,993.76
2018-12-01T04:33:41.903Z,993.72
2018-12-01T04:34:41.991Z,993.74
2018-12-01T04:35:42.303Z,993.75
2018-12-01T04:36:42.014Z,993.80
2018-12-01T04:37:42.052Z,993.74
2018-12-01T04:38:42.088Z,993.77
2018-12-01T04:39:42.126Z,993.77
2018-12-01T04:40:42.161Z,993.77
2018-12-01T04:41:42.201Z,993.73
2018-12-01T04:42:42.235Z,993.77
2018-12-01T04:43:42.272Z,993.77
2018-12-01T04:44:42.316Z,993.75
2018-12-01T04:45:42.346Z,993.75
2018-12-01T04:46:42.383Z,993.76
2018-12-01T04:47:42.431Z,993.79
2018-12-01T04:48:42.465Z,993.83
2018-12-01T04:49:42.499Z,993.84
2018-12-01T04:50:42.536Z,993.84
2018-12-01T04:51:42.567Z,993.85
2018-12-01T04:52:42.606Z,993.87
2018-12-01T04:53:42.643Z,993.90
2018-12-01T04:54:42.678Z,993.87
2018-12-01T04:55:42.716Z,993.84
2018-12-01T04:56:42.753Z,993.86
2018-12-01T04:57:42.797Z,993.92
2018-12-01T04:58:42.837Z,993.92
2018-12-01T04:59:42.872Z,993.91
2018-12-01T05:00:42.908Z,993.92
2018-12-01T05:01:42.937Z,993.91
2018-12-01T05:02:42.973Z,993.92
2018-12-01T05:03:43.010Z,993.93
2018-12-01T05:04:43.055Z,993.98
2018-12-01T05:05:43.085Z,993.95
2018-12-01T05:06:43.123Z,994.00
2018-12-01T05:07:43.159Z,993.97
2018-12-01T05:08:43.195Z,994.02
2018-12-01T05:09:43.233Z,994.02
2018-12-01T05:10:43.270Z,993.98
2018-12-01T05:11:43.306Z,993.97
2018-12-01T05:12:43.344Z,993.99
2018-12-01T05:13:43.383Z,993.97
2018-12-01T05:14:43.421Z,994.01
2018-12-01T05:15:43.458Z,993.99
2018-12-01T05:16:43.492Z,993.98
2018-12-01T05:17:43.532Z,994.04
2018-12-01T05:18:43.568Z,994.03
2018-12-01T05:19:43.603Z,994.06
2018-12-01T05:20:43.641Z,994.09
2018-12-01T05:21:43.677Z,994.08
2018-12-01T05:22:43.716Z,994.08
2018-12-01T05:23:43.756Z,994.06
2018-12-01T05:24:43.788Z,994.08
2018-12-01T05:25:43.829Z,994.03
2018-12-01T05:26:43.866Z,994.08
2018-12-01T05:27:43.902Z,994.06
2018-12-01T05:28:43.954Z,994.05
2018-12-01T05:29:43.977Z,994.05
2018-12-01T05:30:44.014Z,994.05
2018-12-01T05:31:44.050Z,994.06
2018-12-01T05:32:44.097Z,994.02
2018-12-01T05:33:44.124Z,994.06
2018-12-01T05:34:44.161Z,994.03
2018-12-01T05:35:44.197Z,994.08
2018-12-01T05:36:44.236Z,994.09
2018-12-01T05:37:44.272Z,994.11
2018-12-01T05:38:44.309Z,994.15
2018-12-01T05:39:44.346Z,994.10
2018-12-01T05:40:44.384Z,994.09
2018-12-01T05:41:44.421Z,994.10
2018-12-01T05:42:44.461Z,994.07
2018-12-01T05:43:44.496Z,994.11
2018-12-01T05:44:44.541Z,994.11
2018-12-01T05:45:44.568Z,994.14
2018-12-01T05:46:44.609Z,994.20
2018-12-01T05:47:44.643Z,994.20
2018-12-01T05:48:44.683Z,994.16
2018-12-01T05:49:44.720Z,994.16
2018-12-01T05:50:44.755Z,994.13
2018-12-01T05:51:44.794Z,994.09
2018-12-01T05:52:44.830Z,994.13
2018-12-01T05:53:44.875Z,994.15
2018-12-01T05:54:44.911Z,994.10
2018-12-01T05:55:44.940Z,994.17
2018-12-01T05:56:44.985Z,994.16
2018-12-01T05:57:45.067Z,994.11
2018-12-01T05:58:45.058Z,994.10
2018-12-01T05:59:45.090Z,994.14
2018-12-01T06:00:45.129Z,994.17
2018-12-01T06:01:45.166Z,994.14
2018-12-01T06:02:45.210Z,994.14
2018-12-01T06:03:45.239Z,994.09
2018-12-01T06:04:45.275Z,994.13
2018-12-01T06:05:45.313Z,994.22
2018-12-01T06:06:45.350Z,994.16
2018-12-01T06:07:45.396Z,994.16
2018-12-01T06:08:45.426Z,994.17
2018-12-01T06:09:45.462Z,994.24
2018-12-01T06:10:45.498Z,994.25
2018-12-01T06:11:45.536Z,994.24
2018-12-01T06:12:45.572Z,994.27
2018-12-01T06:13:45.610Z,994.24
2018-12-01T06:14:45.648Z,994.23
2018-12-01T06:15:45.683Z,994.24
2018-12-01T06:16:45.723Z,994.23
2018-12-01T06:17:45.760Z,994.23
2018-12-01T06:18:45.796Z,994.23
2018-12-01T06:19:45.833Z,994.20
2018-12-01T06:20:45.920Z,994.21
2018-12-01T06:21:45.908Z,994.23
2018-12-01T06:22:45.954Z,994.25
2018-12-01T06:23:46.081Z,994.23
2018-12-01T06:24:46.020Z,994.21
2018-12-01T06:25:46.069Z,994.23
2018-12-01T06:26:46.096Z,994.20
2018-12-01T06:27:46.132Z,994.20
2018-12-01T06:28:46.168Z,994.22
2018-12-01T06:29:46.209Z,994.25
2018-12-01T06:30:46.245Z,994.24
2018-12-01T06:31:46.279Z,994.27
2018-12-01T06:32:46.321Z,994.24
2018-12-01T06:33:46.362Z,994.27
2018-12-01T06:34:46.392Z,994.30
2018-12-01T06:35:46.427Z,994.28
2018-12-01T06:36:46.466Z,994.23
2018-12-01T06:37:46.501Z,994.29
2018-12-01T06:38:46.540Z,994.29
2018-12-01T06:39:46.575Z,994.23
2018-12-01T06:40:46.613Z,994.24
2018-12-01T06:41:46.655Z,994.25
2018-12-01T06:42:46.687Z,994.31
2018-12-01T06:43:46.722Z,994.30
2018-12-01T06:44:46.760Z,994.28
2018-12-01T06:45:46.797Z,994.31
2018-12-01T06:46:46.834Z,994.30
2018-12-01T06:47:46.874Z,994.34
2018-12-01T06:48:46.907Z,994.35
2018-12-01T06:49:46.955Z,994.37
2018-12-01T06:50:46.985Z,994.39
2018-12-01T06:51:47.019Z,994.36
2018-12-01T06:52:47.056Z,994.39
2018-12-01T06:53:47.092Z,994.39
2018-12-01T06:54:47.131Z,994.42
2018-12-01T06:55:47.179Z,994.36
2018-12-01T06:56:47.221Z,994.40
2018-12-01T06:57:47.248Z,994.39
2018-12-01T06:58:47.281Z,994.41
2018-12-01T06:59:47.316Z,994.42
2018-12-01T07:00:47.353Z,994.39
2018-12-01T07:01:47.404Z,994.45
2018-12-01T07:02:47.427Z,994.46
2018-12-01T07:03:47.465Z,994.46
2018-12-01T07:04:47.501Z,994.50
2018-12-01T07:05:47.554Z,994.52
2018-12-01T07:06:47.577Z,994.52
2018-12-01T07:07:47.618Z,994.51
2018-12-01T07:08:47.662Z,994.54
2018-12-01T07:09:47.687Z,994.55
2018-12-01T07:10:47.732Z,994.48
2018-12-01T07:11:47.764Z,994.49
2018-12-01T07:12:47.800Z,994.48
2018-12-01T07:13:47.909Z,994.52
2018-12-01T07:14:47.875Z,994.54
2018-12-01T07:15:47.909Z,994.53
2018-12-01T07:16:47.951Z,994.59
2018-12-01T07:17:47.989Z,994.53
2018-12-01T07:18:48.021Z,994.54
2018-12-01T07:19:48.056Z,994.50
2018-12-01T07:20:48.096Z,994.51
2018-12-01T07:21:48.140Z,994.51
2018-12-01T07:22:48.169Z,994.51
2018-12-01T07:23:48.214Z,994.59
2018-12-01T07:24:48.243Z,994.50
2018-12-01T07:25:48.283Z,994.55
2018-12-01T07:26:48.328Z,994.48
2018-12-01T07:27:48.356Z,994.46
2018-12-01T07:28:48.392Z,994.53
2018-12-01T07:29:48.434Z,994.48
2018-12-01T07:30:48.469Z,994.50
2018-12-01T07:31:48.506Z,994.51
2018-12-01T07:32:48.579Z,994.59
2018-12-01T07:33:48.578Z,994.60
2018-12-01T07:34:48.627Z,994.59
2018-12-01T07:35:48.652Z,994.63
2018-12-01T07:36:48.699Z,994.63
2018-12-01T07:37:48.743Z,994.63
2018-12-01T07:38:48.765Z,994.61
2018-12-01T07:39:48.801Z,994.63
2018-12-01T07:40:48.842Z,994.64
2018-12-01T07:41:48.878Z,994.61
2018-12-01T07:42:48.915Z,994.60
2018-12-01T07:43:48.949Z,994.60
2018-12-01T07:44:48.989Z,994.62
2018-12-01T07:45:49.026Z,994.60
2018-12-01T07:46:49.063Z,994.65
2018-12-01T07:47:49.100Z,994.64
2018-12-01T07:48:49.148Z,994.65
2018-12-01T07:49:49.179Z,994.61
2018-12-01T07:50:49.213Z,994.60
2018-12-01T07:51:49.250Z,994.57
2018-12-01T07:52:49.291Z,994.60
2018-12-01T07:53:49.333Z,994.56
2018-12-01T07:54:49.363Z,994.55
2018-12-01T07:55:49.398Z,994.53
2018-12-01T07:56:49.437Z,994.51
2018-12-01T07:57:49.477Z,994.51
2018-12-01T07:58:49.513Z,994.58
2018-12-01T07:59:49.556Z,994.57
2018-12-01T08:00:49.595Z,994.56
2018-12-01T08:01:49.624Z,994.53
2018-12-01T08:02:49.668Z,994.53
2018-12-01T08:03:49.709Z,994.50
2018-12-01T08:04:49.742Z,994.48
2018-12-01T08:05:49.778Z,994.46
2018-12-01T08:06:49.815Z,994.43
2018-12-01T08:07:49.849Z,994.44
2018-12-01T08:08:49.891Z,994.38
2018-12-01T08:09:49.966Z,994.39
2018-12-01T08:10:49.962Z,994.39
2018-12-01T08:11:50.001Z,994.39
2018-12-01T08:12:50.042Z,994.36
2018-12-01T08:13:50.077Z,994.37
2018-12-01T08:14:50.118Z,994.42
2018-12-01T08:15:50.150Z,994.36
2018-12-01T08:16:50.192Z,994.42
2018-12-01T08:17:50.327Z,994.40
2018-12-01T08:18:50.276Z,994.40
2018-12-01T08:19:50.301Z,994.41
2018-12-01T08:20:50.347Z,994.39
2018-12-01T08:21:50.377Z,994.43
2018-12-01T08:22:50.415Z,994.39
2018-12-01T08:23:50.451Z,994.42
2018-12-01T08:24:50.606Z,994.39
2018-12-01T08:25:50.528Z,994.43
2018-12-01T08:26:50.599Z,994.43
2018-12-01T08:27:50.606Z,994.43
2018-12-01T08:28:50.641Z,994.37
2018-12-01T08:29:50.679Z,994.39
2018-12-01T08:30:50.729Z,994.37
2018-12-01T08:31:50.757Z,994.39
2018-12-01T08:32:50.796Z,994.38
2018-12-01T08:33:50.829Z,994.39
2018-12-01T08:34:50.924Z,994.39
2018-12-01T08:35:50.913Z,994.37
2018-12-01T08:36:50.946Z,994.39
2018-12-01T08:37:50.983Z,994.39
2018-12-01T08:38:51.019Z,994.40
2018-12-01T08:39:51.070Z,994.41
2018-12-01T08:40:51.096Z,994.47
2018-12-01T08:41:51.154Z,994.46
2018-12-01T08:42:51.172Z,994.49
2018-12-01T08:43:51.277Z,994.45
2018-12-01T08:44:51.250Z,994.48
2018-12-01T08:45:51.302Z,994.46
2018-12-01T08:46:51.323Z,994.44
2018-12-01T08:47:51.360Z,994.46
2018-12-01T08:48:51.404Z,994.47
2018-12-01T08:49:51.445Z,994.50
2018-12-01T08:50:51.490Z,994.48
2018-12-01T08:51:51.532Z,994.48
2018-12-01T08:52:51.551Z,994.50
2018-12-01T08:53:51.597Z,994.52
2018-12-01T08:54:51.627Z,994.52
2018-12-01T08:55:51.664Z,994.51
2018-12-01T08:56:51.703Z,994.47
2018-12-01T08:57:51.749Z,994.52
2018-12-01T08:58:51.780Z,994.53
2018-12-01T08:59:51.818Z,994.53
2018-12-01T09:00:51.855Z,994.50
2018-12-01T09:01:51.899Z,994.55
2018-12-01T09:02:51.931Z,994.55
2018-12-01T09:03:51.972Z,994.54
2018-12-01T09:04:52.008Z,994.50
2018-12-01T09:05:52.057Z,994.52
2018-12-01T09:06:52.087Z,994.55
2018-12-01T09:07:52.121Z,994.58
2018-12-01T09:08:52.180Z,994.57
2018-12-01T09:09:52.198Z,994.60
2018-12-01T09:10:52.238Z,994.63
2018-12-01T09:11:52.273Z,994.63
2018-12-01T09:12:52.319Z,994.67
2018-12-01T09:13:52.355Z,994.62
2018-12-01T09:14:52.397Z,994.63
2018-12-01T09:15:52.429Z,994.60
2018-12-01T09:16:52.478Z,994.60
2018-12-01T09:17:52.508Z,994.57
2018-12-01T09:18:52.544Z,994.58
2018-12-01T09:19:52.580Z,994.60
2018-12-01T09:20:52.619Z,994.58
2018-12-01T09:21:52.659Z,994.56
2018-12-01T09:22:52.698Z,994.51
2018-12-01T09:23:52.735Z,994.55
2018-12-01T09:24:52.774Z,994.58
2018-12-01T09:25:52.823Z,994.60
2018-12-01T09:26:52.851Z,994.62
2018-12-01T09:27:52.897Z,994.61
2018-12-01T09:28:52.931Z,994.60
2018-12-01T09:29:52.975Z,994.55
2018-12-01T09:30:53.005Z,994.57
2018-12-01T09:31:53.044Z,994.55
2018-12-01T09:32:53.082Z,994.55
2018-12-01T09:33:53.123Z,994.54
2018-12-01T09:34:53.165Z,994.51
2018-12-01T09:35:53.197Z,994.46
2018-12-01T09:36:53.239Z,994.48
2018-12-01T09:37:53.275Z,994.50
2018-12-01T09:38:53.323Z,994.49
2018-12-01T09:39:53.353Z,994.45
2018-12-01T09:40:53.401Z,994.44
2018-12-01T09:41:53.489Z,994.48
2018-12-01T09:42:53.475Z,994.49
2018-12-01T09:43:53.632Z,994.54
2018-12-01T09:44:53.546Z,994.53
2018-12-01T09:45:53.592Z,994.60
2018-12-01T09:46:53.628Z,994.59
2018-12-01T09:47:53.669Z,994.55
2018-12-01T09:48:53.701Z,994.52
2018-12-01T09:49:53.739Z,994.52
2018-12-01T09:50:53.777Z,994.53
2018-12-01T09:51:53.816Z,994.52
2018-12-01T09:52:53.859Z,994.54
2018-12-01T09:53:53.895Z,994.48
2018-12-01T09:54:54.071Z,994.47
2018-12-01T09:55:53.975Z,994.50
2018-12-01T09:56:54.021Z,994.45
2018-12-01T09:57:54.051Z,994.39
2018-12-01T09:58:54.093Z,994.35
2018-12-01T09:59:54.130Z,994.33
2018-12-01T10:00:54.166Z,994.30
2018-12-01T10:01:54.207Z,994.28
2018-12-01T10:02:54.296Z,994.34
2018-12-01T10:03:54.282Z,994.35
2018-12-01T10:04:54.576Z,994.34
2018-12-01T10:05:54.363Z,994.34
2018-12-01T10:06:54.411Z,994.33
2018-12-01T10:07:54.450Z,994.35
2018-12-01T10:08:54.477Z,994.34
2018-12-01T10:09:54.516Z,994.32
2018-12-01T10:10:54.581Z,994.32
2018-12-01T10:11:54.593Z,994.33
2018-12-01T10:12:54.869Z,994.35
2018-12-01T10:13:54.671Z,994.27
2018-12-01T10:14:54.714Z,994.32
2018-12-01T10:15:54.750Z,994.24
2018-12-01T10:16:54.789Z,994.28
2018-12-01T10:17:54.838Z,994.25
2018-12-01T10:18:56.567Z,994.24
2018-12-01T10:19:54.912Z,994.26
2018-12-01T10:20:54.948Z,994.22
2018-12-01T10:21:54.983Z,994.23
2018-12-01T10:22:55.034Z,994.25
2018-12-01T10:23:55.060Z,994.24
2018-12-01T10:24:55.100Z,994.18
2018-12-01T10:25:55.139Z,994.18
2018-12-01T10:26:55.242Z,994.15
2018-12-01T10:27:55.216Z,994.15
2018-12-01T10:28:55.256Z,994.09
2018-12-01T10:29:55.294Z,994.15
2018-12-01T10:30:55.339Z,994.16
2018-12-01T10:31:55.372Z,994.19
2018-12-01T10:32:55.415Z,994.24
2018-12-01T10:33:55.451Z,994.16
2018-12-01T10:34:55.500Z,994.20
2018-12-01T10:35:55.529Z,994.18
2018-12-01T10:36:55.567Z,994.16
2018-12-01T10:37:55.615Z,994.20
2018-12-01T10:38:55.647Z,994.20
2018-12-01T10:39:55.687Z,994.23
2018-12-01T10:40:55.725Z,994.22
2018-12-01T10:41:56.157Z,994.24
2018-12-01T10:42:55.818Z,994.13
2018-12-01T10:43:55.848Z,994.11
2018-12-01T10:44:55.884Z,994.16
2018-12-01T10:45:55.920Z,994.12
2018-12-01T10:46:55.979Z,994.14
2018-12-01T10:47:55.999Z,994.17
2018-12-01T10:48:56.040Z,994.13
2018-12-01T10:49:56.081Z,994.12
2018-12-01T10:50:56.118Z,994.12
2018-12-01T10:51:56.165Z,994.14
2018-12-01T10:52:56.198Z,994.09
2018-12-01T10:53:56.235Z,994.06
2018-12-01T10:54:56.272Z,994.02
2018-12-01T10:55:56.311Z,994.07
2018-12-01T10:56:56.355Z,994.03
2018-12-01T10:57:56.393Z,994.03
2018-12-01T10:58:56.438Z,994.07
2018-12-01T10:59:56.478Z,994.06
2018-12-01T11:00:56.527Z,994.08
2018-12-01T11:01:56.549Z,994.06
2018-12-01T11:02:56.601Z,994.05
2018-12-01T11:03:56.626Z,994.02
2018-12-01T11:04:56.666Z,993.98
2018-12-01T11:05:56.707Z,994.00
2018-12-01T11:06:56.756Z,993.98
2018-12-01T11:07:56.786Z,993.96
2018-12-01T11:08:56.833Z,993.96
2018-12-01T11:09:56.939Z,994.07
2018-12-01T11:10:56.933Z,994.03
2018-12-01T11:11:56.942Z,994.06
2018-12-01T11:12:57.065Z,994.08
2018-12-01T11:13:57.025Z,994.09
2018-12-01T11:14:57.066Z,994.18
2018-12-01T11:15:57.117Z,994.17
2018-12-01T11:16:57.143Z,994.20
2018-12-01T11:17:57.185Z,994.17
2018-12-01T11:18:57.227Z,994.19
2018-12-01T11:19:57.260Z,994.15
2018-12-01T11:20:57.350Z,994.16
2018-12-01T11:21:57.342Z,994.12
2018-12-01T11:22:58.086Z,994.19
2018-12-01T11:23:57.415Z,994.14
2018-12-01T11:24:57.547Z,994.12
2018-12-01T11:25:57.493Z,994.14
2018-12-01T11:26:57.533Z,994.09
2018-12-01T11:27:57.571Z,994.10
2018-12-01T11:28:57.738Z,994.04
2018-12-01T11:29:57.660Z,994.02
2018-12-01T11:30:57.692Z,994.00
2018-12-01T11:31:57.846Z,993.92
2018-12-01T11:32:57.779Z,993.95
2018-12-01T11:33:57.816Z,993.96
2018-12-01T11:34:57.880Z,993.98
2018-12-01T11:35:57.887Z,993.94
2018-12-01T11:36:57.926Z,993.97
2018-12-01T11:37:57.967Z,993.98
2018-12-01T11:38:58.004Z,993.99
2018-12-01T11:39:58.055Z,994.02
2018-12-01T11:40:58.083Z,993.96
2018-12-01T11:41:58.124Z,994.02
2018-12-01T11:42:58.171Z,993.98
2018-12-01T11:43:58.201Z,994.02
2018-12-01T11:44:58.242Z,993.96
2018-12-01T11:45:58.285Z,993.92
2018-12-01T11:46:58.327Z,993.93
2018-12-01T11:47:58.359Z,993.94
2018-12-01T11:48:58.402Z,993.95
2018-12-01T11:49:58.435Z,993.87
2018-12-01T11:50:58.474Z,993.90
2018-12-01T11:51:58.513Z,993.82
2018-12-01T11:52:58.556Z,993.85
2018-12-01T11:53:58.592Z,993.87
2018-12-01T11:54:58.632Z,993.91
2018-12-01T11:55:58.670Z,993.91
2018-12-01T11:56:58.710Z,993.94
2018-12-01T11:57:58.765Z,993.92
2018-12-01T11:58:58.798Z,993.94
2018-12-01T11:59:58.846Z,993.91
2018-12-01T12:00:58.865Z,993.84
2018-12-01T12:02:00.521Z,993.83
2018-12-01T12:02:58.945Z,993.82
2018-12-01T12:03:58.984Z,993.79
2018-12-01T12:04:59.029Z,993.74
2018-12-01T12:05:59.063Z,993.81
2018-12-01T12:06:59.102Z,993.82
2018-12-01T12:07:59.143Z,993.81
2018-12-01T12:08:59.185Z,993.73
2018-12-01T12:09:59.251Z,993.71
2018-12-01T12:10:59.257Z,993.73
2018-12-01T12:11:59.300Z,993.70
2018-12-01T12:12:59.339Z,993.67
2018-12-01T12:13:59.380Z,993.69
2018-12-01T12:14:59.434Z,993.69
2018-12-01T12:15:59.455Z,993.73
2018-12-01T12:16:59.496Z,993.72
2018-12-01T12:17:59.534Z,993.69
2018-12-01T12:18:59.578Z,993.69
2018-12-01T12:19:59.988Z,993.66
2018-12-01T12:20:59.658Z,993.69
2018-12-01T12:21:59.691Z,993.66
2018-12-01T12:22:59.729Z,993.66
2018-12-01T12:23:59.769Z,993.70
2018-12-01T12:24:59.807Z,993.69
2018-12-01T12:25:59.849Z,993.69
2018-12-01T12:26:59.886Z,993.67
2018-12-01T12:27:59.924Z,993.68
2018-12-01T12:28:59.964Z,993.70